Time;durP1;ratioP1;P1;durP2;ratioP2;P2;SDS_P1;SDS_P2;PMS_P1;PMS_P2;Temp;Humidity;BMP_temperature;BMP_pressure;BME280_temperature;BME280_humidity;BME280_pressure;Samples;Min_cycle;Max_cycle;Signal;HPM_P1;HPM_P2
2023/01/02 00:00:22;;;;;;;;;;;4.00;99.90;;;;;;5096255;28;19911;-79
2023/01/02 00:02:48;;;;;;;;;;;4.00;99.90;;;;;;5115875;28;19995;-80
2023/01/02 00:05:13;;;;;;;;;;;4.00;99.90;;;;;;5114888;28;19908;-82
2023/01/02 00:07:39;;;;;;;;;;;3.90;99.90;;;;;;5116221;28;20206;-79
2023/01/02 00:10:04;;;;;;;;;;;3.90;99.90;;;;;;5113144;28;19962;-79
2023/01/02 00:12:30;;;;;;;;;;;3.90;99.90;;;;;;5096280;28;20357;-80
2023/01/02 00:14:55;;;;;;;;;;;3.90;99.90;;;;;;5115231;28;19912;-79
2023/01/02 00:17:21;;;;;;;;;;;4.00;99.90;;;;;;5114562;28;19914;-80
2023/01/02 00:19:47;;;;;;;;;;;4.00;99.90;;;;;;5096676;28;19973;-79
2023/01/02 00:22:12;;;;;;;;;;;3.90;99.90;;;;;;5113823;28;19947;-79
2023/01/02 00:24:38;;;;;;;;;;;3.90;99.90;;;;;;5113662;28;19907;-81
2023/01/02 00:27:03;;;;;;;;;;;3.90;99.90;;;;;;5113938;28;19930;-80
2023/01/02 00:29:29;;;;;;;;;;;3.90;99.90;;;;;;5113047;28;19998;-80
2023/01/02 00:31:55;;;;;;;;;;;4.00;99.90;;;;;;5113180;28;19907;-80
2023/01/02 00:34:20;;;;;;;;;;;4.00;99.90;;;;;;5112870;28;20288;-80
2023/01/02 00:36:46;;;;;;;;;;;4.00;99.90;;;;;;5122934;28;19911;-79
2023/01/02 00:39:11;;;;;;;;;;;4.00;99.90;;;;;;5127643;28;20430;-81
2023/01/02 00:41:37;;;;;;;;;;;4.10;99.90;;;;;;5113118;28;19912;-80
2023/01/02 00:44:02;;;;;;;;;;;4.00;99.90;;;;;;5113634;28;19950;-80
2023/01/02 00:46:28;;;;;;;;;;;4.10;99.90;;;;;;5093828;28;19912;-80
2023/01/02 00:48:53;;;;;;;;;;;4.10;99.90;;;;;;5112789;28;19908;-80
2023/01/02 00:51:19;;;;;;;;;;;4.10;99.90;;;;;;5112404;28;19965;-80
2023/01/02 00:53:45;;;;;;;;;;;4.10;99.90;;;;;;5094240;28;20018;-80
2023/01/02 00:56:10;;;;;;;;;;;4.20;99.90;;;;;;5112587;28;20268;-80
2023/01/02 00:58:36;;;;;;;;;;;4.10;99.90;;;;;;5112160;28;20041;-80
2023/01/02 01:01:01;;;;;;;;;;;4.10;99.90;;;;;;5112778;28;19908;-79
2023/01/02 01:03:27;;;;;;;;;;;4.10;99.90;;;;;;5112145;28;19907;-80
2023/01/02 01:05:52;;;;;;;;;;;4.10;99.90;;;;;;5112703;28;19992;-81
2023/01/02 01:08:18;;;;;;;;;;;4.20;99.90;;;;;;5112339;28;19916;-83
2023/01/02 01:10:44;;;;;;;;;;;4.10;99.90;;;;;;5112895;28;20388;-80
2023/01/02 01:13:09;;;;;;;;;;;4.10;99.90;;;;;;5112329;28;19916;-80
2023/01/02 01:15:35;;;;;;;;;;;4.00;99.90;;;;;;5111334;28;20002;-80
2023/01/02 01:18:00;;;;;;;;;;;4.00;99.90;;;;;;5113012;28;19973;-79
2023/01/02 01:20:26;;;;;;;;;;;4.00;99.90;;;;;;5112248;28;19908;-80
2023/01/02 01:22:52;;;;;;;;;;;4.00;99.90;;;;;;5094244;28;19908;-80
2023/01/02 01:25:17;;;;;;;;;;;4.00;99.90;;;;;;5112819;28;19912;-82
2023/01/02 01:27:43;;;;;;;;;;;4.00;99.90;;;;;;5127529;28;19908;-79
2023/01/02 01:30:09;;;;;;;;;;;4.00;99.90;;;;;;5113028;28;19947;-80
2023/01/02 01:32:35;;;;;;;;;;;4.00;99.90;;;;;;5111592;28;20069;-80
2023/01/02 01:35:00;;;;;;;;;;;4.00;99.90;;;;;;5112492;28;19919;-80
2023/01/02 01:37:26;;;;;;;;;;;4.00;99.90;;;;;;5111652;28;19908;-80
2023/01/02 01:39:51;;;;;;;;;;;4.00;99.90;;;;;;5112663;28;19912;-79
2023/01/02 01:42:17;;;;;;;;;;;4.00;99.90;;;;;;5094282;28;19914;-79
2023/01/02 01:44:50;;;;;;;;;;;4.10;99.90;;;;;;5111906;28;19908;-79
2023/01/02 01:47:16;;;;;;;;;;;4.10;99.90;;;;;;5112276;28;19908;-80
2023/01/02 01:49:42;;;;;;;;;;;4.10;99.90;;;;;;5111550;28;20284;-79
2023/01/02 01:52:10;;;;;;;;;;;4.10;99.90;;;;;;5112447;28;20313;-79
2023/01/02 01:54:38;;;;;;;;;;;4.10;99.90;;;;;;5112328;28;19954;-80
2023/01/02 01:57:30;;;;;;;;;;;4.20;99.90;;;;;;5112541;28;19908;-80
2023/01/02 01:59:56;;;;;;;;;;;4.10;99.90;;;;;;5107351;28;20324;-80
2023/01/02 02:02:23;;;;;;;;;;;4.20;99.90;;;;;;5112277;28;19962;-81
2023/01/02 02:04:48;;;;;;;;;;;4.20;99.90;;;;;;5111835;28;19908;-80
2023/01/02 02:07:14;;;;;;;;;;;4.20;99.90;;;;;;5111629;28;20407;-79
2023/01/02 02:09:46;;;;;;;;;;;4.20;99.90;;;;;;5111179;28;19930;-79
2023/01/02 02:12:12;;;;;;;;;;;4.20;99.90;;;;;;5093483;28;20283;-80
2023/01/02 02:14:38;;;;;;;;;;;4.20;99.90;;;;;;5111278;28;19935;-79
2023/01/02 02:17:03;;;;;;;;;;;4.20;99.90;;;;;;5111903;28;19912;-79
2023/01/02 02:19:35;;;;;;;;;;;4.30;99.90;;;;;;5092558;28;19919;-80
2023/01/02 02:22:10;;;;;;;;;;;4.20;99.90;;;;;;5091556;28;19924;-79
2023/01/02 02:24:35;;;;;;;;;;;4.20;99.90;;;;;;5090531;28;20325;-79
2023/01/02 02:27:01;;;;;;;;;;;4.20;99.90;;;;;;5090618;28;19912;-79
2023/01/02 02:29:45;;;;;;;;;;;4.30;99.90;;;;;;5090721;28;19909;-79
2023/01/02 02:32:33;;;;;;;;;;;4.30;99.90;;;;;;5091587;28;19912;-79
2023/01/02 02:34:59;;;;;;;;;;;4.30;99.90;;;;;;5091363;28;19961;-79
2023/01/02 02:37:44;;;;;;;;;;;4.20;99.90;;;;;;5090917;28;20276;-82
2023/01/02 02:40:10;;;;;;;;;;;4.30;99.90;;;;;;5091282;28;20325;-79
2023/01/02 02:42:35;;;;;;;;;;;4.30;99.90;;;;;;5091240;28;19909;-79
2023/01/02 02:45:05;;;;;;;;;;;4.20;99.90;;;;;;5091383;28;19919;-79
2023/01/02 02:47:39;;;;;;;;;;;4.30;99.90;;;;;;5072653;28;19916;-79
2023/01/02 02:50:08;;;;;;;;;;;4.30;99.90;;;;;;5091074;28;19908;-79
2023/01/02 02:52:53;;;;;;;;;;;4.30;99.90;;;;;;5091030;28;19912;-79
2023/01/02 02:55:22;;;;;;;;;;;4.30;99.90;;;;;;5080179;28;19923;-79
2023/01/02 02:57:49;;;;;;;;;;;4.30;99.90;;;;;;5090852;28;20397;-80
2023/01/02 03:00:15;;;;;;;;;;;4.30;99.90;;;;;;5090868;28;19943;-80
2023/01/02 03:02:41;;;;;;;;;;;4.30;99.90;;;;;;5072742;28;19919;-80
2023/01/02 03:05:10;;;;;;;;;;;4.30;99.90;;;;;;5073098;28;20291;-78
2023/01/02 03:07:48;;;;;;;;;;;4.20;99.90;;;;;;5072298;28;19908;-79
2023/01/02 03:10:19;;;;;;;;;;;4.30;99.90;;;;;;5090735;28;19920;-79
2023/01/02 03:13:03;;;;;;;;;;;4.20;99.90;;;;;;5090640;28;19987;-79
2023/01/02 03:15:39;;;;;;;;;;;4.30;99.90;;;;;;5090995;28;19920;-80
2023/01/02 03:18:24;;;;;;;;;;;4.20;99.90;;;;;;5091254;28;19908;-79
2023/01/02 03:20:59;;;;;;;;;;;4.30;99.90;;;;;;5091440;28;19965;-80
2023/01/02 03:23:25;;;;;;;;;;;4.30;99.90;;;;;;5091559;28;20349;-81
2023/01/02 03:25:52;;;;;;;;;;;4.30;99.90;;;;;;5090930;28;19962;-80
2023/01/02 03:28:20;;;;;;;;;;;4.30;99.90;;;;;;5090854;28;19908;-79
2023/01/02 03:30:49;;;;;;;;;;;4.20;99.90;;;;;;5093268;28;20064;-78
2023/01/02 03:33:16;;;;;;;;;;;4.20;99.90;;;;;;5096930;28;19912;-79
2023/01/02 03:35:48;;;;;;;;;;;4.20;99.90;;;;;;5095459;28;20013;-78
2023/01/02 03:38:19;;;;;;;;;;;4.30;99.90;;;;;;5097238;28;19914;-79
2023/01/02 03:40:47;;;;;;;;;;;4.30;99.90;;;;;;5095243;28;19908;-79
2023/01/02 03:43:19;;;;;;;;;;;4.30;99.90;;;;;;5096302;28;19908;-79
2023/01/02 03:45:49;;;;;;;;;;;4.30;99.90;;;;;;5095724;28;20068;-79
2023/01/02 03:48:36;;;;;;;;;;;4.30;99.90;;;;;;5096635;28;19961;-78
2023/01/02 03:51:02;;;;;;;;;;;4.30;99.90;;;;;;5097113;28;19908;-79
2023/01/02 03:53:30;;;;;;;;;;;4.30;99.90;;;;;;5096749;28;20015;-83
2023/01/02 03:56:09;;;;;;;;;;;4.30;99.90;;;;;;5096595;28;19912;-78
2023/01/02 03:58:41;;;;;;;;;;;4.30;99.90;;;;;;5096119;28;19908;-79
2023/01/02 04:01:12;;;;;;;;;;;4.30;99.90;;;;;;5099201;28;19934;-79
2023/01/02 04:03:42;;;;;;;;;;;4.30;99.90;;;;;;5080316;28;19931;-79
2023/01/02 04:06:12;;;;;;;;;;;4.30;99.90;;;;;;5079720;28;20004;-78
2023/01/02 04:08:57;;;;;;;;;;;4.30;99.90;;;;;;5097253;28;19939;-79
2023/01/02 04:11:25;;;;;;;;;;;4.30;99.90;;;;;;5057463;28;19975;-83
2023/01/02 04:13:53;;;;;;;;;;;4.30;99.90;;;;;;5056578;28;20051;-80
2023/01/02 04:16:21;;;;;;;;;;;4.40;99.90;;;;;;5057025;28;19936;-79
2023/01/02 04:18:50;;;;;;;;;;;4.40;99.90;;;;;;5056057;28;19909;-80
2023/01/02 04:21:18;;;;;;;;;;;4.30;99.90;;;;;;5055773;28;19909;-79
2023/01/02 04:23:49;;;;;;;;;;;4.30;99.90;;;;;;5054543;28;19909;-79
2023/01/02 04:26:17;;;;;;;;;;;4.30;99.90;;;;;;5056328;28;19916;-79
2023/01/02 04:28:43;;;;;;;;;;;4.30;99.90;;;;;;5056043;28;19913;-79
2023/01/02 04:31:11;;;;;;;;;;;4.20;99.90;;;;;;5054266;28;19951;-78
2023/01/02 04:33:43;;;;;;;;;;;4.30;99.90;;;;;;5052846;28;19924;-80
2023/01/02 04:36:13;;;;;;;;;;;4.30;99.90;;;;;;5053660;28;19913;-78
2023/01/02 04:38:40;;;;;;;;;;;4.30;99.90;;;;;;5052960;28;19999;-79
2023/01/02 04:41:06;;;;;;;;;;;4.30;99.90;;;;;;5053453;28;20263;-79
2023/01/02 04:43:31;;;;;;;;;;;4.30;99.90;;;;;;5053435;28;19916;-85
2023/01/02 04:45:57;;;;;;;;;;;4.20;99.90;;;;;;5052935;28;19909;-79
2023/01/02 04:48:23;;;;;;;;;;;4.30;99.90;;;;;;5053210;28;19909;-80
2023/01/02 04:50:48;;;;;;;;;;;4.30;99.90;;;;;;5052527;28;19912;-77
2023/01/02 04:53:14;;;;;;;;;;;4.20;99.90;;;;;;5053334;28;20316;-78
2023/01/02 04:55:40;;;;;;;;;;;4.20;99.90;;;;;;5052816;28;19952;-79
2023/01/02 04:58:06;;;;;;;;;;;4.30;99.90;;;;;;5053136;28;19917;-79
2023/01/02 05:00:31;;;;;;;;;;;4.20;99.90;;;;;;5052725;28;19918;-82
2023/01/02 05:02:57;;;;;;;;;;;4.20;99.90;;;;;;5051465;28;19955;-79
2023/01/02 05:05:23;;;;;;;;;;;4.20;99.90;;;;;;5053148;28;19974;-80
2023/01/02 05:07:48;;;;;;;;;;;4.20;99.90;;;;;;5052363;28;20283;-78
2023/01/02 05:10:14;;;;;;;;;;;4.20;99.90;;;;;;5073636;28;19920;-78
2023/01/02 05:12:39;;;;;;;;;;;4.20;99.90;;;;;;5092082;28;19923;-79
2023/01/02 05:15:06;;;;;;;;;;;4.20;99.90;;;;;;5098615;28;19923;-79
2023/01/02 05:17:35;;;;;;;;;;;4.20;99.90;;;;;;5113281;28;19998;-78
2023/01/02 05:20:01;;;;;;;;;;;4.20;99.90;;;;;;5113220;28;19908;-79
2023/01/02 05:25:11;;;;;;;;;;;4.10;99.90;;;;;;5112571;28;20014;-79
2023/01/02 05:27:36;;;;;;;;;;;4.10;99.90;;;;;;5094114;28;19947;-82
2023/01/02 05:30:02;;;;;;;;;;;4.10;99.90;;;;;;5112992;28;19908;-79
2023/01/02 05:32:28;;;;;;;;;;;4.10;99.90;;;;;;5112703;28;19911;-80
2023/01/02 05:34:53;;;;;;;;;;;4.20;99.90;;;;;;5112451;28;19964;-79
2023/01/02 05:37:19;;;;;;;;;;;4.10;99.90;;;;;;5112813;28;19962;-79
2023/01/02 05:39:44;;;;;;;;;;;4.10;99.90;;;;;;5112115;28;19970;-79
2023/01/02 05:42:10;;;;;;;;;;;4.10;99.90;;;;;;5112624;28;20365;-79
2023/01/02 05:44:36;;;;;;;;;;;4.00;99.90;;;;;;5112311;28;19912;-84
2023/01/02 05:47:01;;;;;;;;;;;4.00;99.90;;;;;;5094263;28;19915;-79
2023/01/02 05:49:27;;;;;;;;;;;4.00;99.90;;;;;;5113185;28;20365;-78
2023/01/02 05:51:52;;;;;;;;;;;4.00;99.90;;;;;;5111764;28;19930;-80
2023/01/02 05:54:18;;;;;;;;;;;4.00;99.90;;;;;;5112205;28;19951;-80
2023/01/02 05:56:43;;;;;;;;;;;4.00;99.90;;;;;;5111813;28;19912;-80
2023/01/02 05:59:09;;;;;;;;;;;4.10;99.90;;;;;;5112443;28;19947;-79
2023/01/02 06:01:35;;;;;;;;;;;4.10;99.90;;;;;;5111684;28;20345;-78
2023/01/02 06:04:00;;;;;;;;;;;4.00;99.90;;;;;;5093699;28;20002;-78
2023/01/02 06:06:36;;;;;;;;;;;4.10;99.90;;;;;;5111957;28;19959;-77
2023/01/02 06:09:02;;;;;;;;;;;4.10;99.90;;;;;;5111757;28;20380;-78
2023/01/02 06:11:29;;;;;;;;;;;4.10;99.90;;;;;;5111817;28;20274;-79
2023/01/02 06:13:55;;;;;;;;;;;4.10;99.90;;;;;;5111367;28;19912;-79
2023/01/02 06:16:21;;;;;;;;;;;4.10;99.90;;;;;;5112218;28;19960;-79
2023/01/02 06:18:47;;;;;;;;;;;4.00;99.90;;;;;;5111337;28;19963;-79
2023/01/02 06:21:14;;;;;;;;;;;4.10;99.90;;;;;;5112447;28;19915;-78
2023/01/02 06:23:40;;;;;;;;;;;4.10;99.90;;;;;;5112110;28;19964;-84
2023/01/02 06:26:08;;;;;;;;;;;4.10;99.90;;;;;;5111806;28;19998;-79
2023/01/02 06:28:34;;;;;;;;;;;4.10;99.90;;;;;;5111917;28;20018;-78
2023/01/02 06:31:00;;;;;;;;;;;4.10;99.90;;;;;;5111520;28;19912;-78
2023/01/02 06:33:26;;;;;;;;;;;4.10;99.90;;;;;;5111804;28;20014;-78
2023/01/02 06:35:57;;;;;;;;;;;4.10;99.90;;;;;;5111038;28;19966;-78
2023/01/02 06:38:23;;;;;;;;;;;4.10;99.90;;;;;;5112107;28;19916;-78
2023/01/02 06:40:55;;;;;;;;;;;4.10;99.90;;;;;;5111011;28;19915;-79
2023/01/02 06:43:21;;;;;;;;;;;4.20;99.90;;;;;;5093454;28;19970;-79
2023/01/02 06:45:46;;;;;;;;;;;4.20;99.90;;;;;;5110989;28;20402;-80
2023/01/02 06:48:12;;;;;;;;;;;4.20;99.90;;;;;;5111272;28;19915;-79
2023/01/02 06:50:38;;;;;;;;;;;4.20;99.90;;;;;;5111796;28;20349;-79
2023/01/02 06:53:03;;;;;;;;;;;4.20;99.90;;;;;;5111214;28;19918;-79
2023/01/02 06:55:29;;;;;;;;;;;4.20;99.90;;;;;;5111837;28;19912;-79
2023/01/02 06:57:54;;;;;;;;;;;4.20;99.90;;;;;;5111194;28;19915;-79
2023/01/02 07:00:20;;;;;;;;;;;4.20;99.90;;;;;;5111972;28;19919;-79
2023/01/02 07:02:45;;;;;;;;;;;4.20;99.90;;;;;;5111073;28;19907;-79
2023/01/02 07:05:11;;;;;;;;;;;4.20;99.90;;;;;;5111341;28;20314;-79
2023/01/02 07:07:37;;;;;;;;;;;4.20;99.90;;;;;;5111302;28;19908;-77
2023/01/02 07:10:03;;;;;;;;;;;4.20;99.90;;;;;;5110744;28;19931;-79
2023/01/02 07:12:29;;;;;;;;;;;4.20;99.90;;;;;;5084226;28;20269;-78
2023/01/02 07:14:54;;;;;;;;;;;4.20;99.90;;;;;;5094210;28;19912;-79
2023/01/02 07:17:20;;;;;;;;;;;4.20;99.90;;;;;;5095012;28;20416;-79
2023/01/02 07:19:45;;;;;;;;;;;4.10;99.90;;;;;;5094790;28;19953;-79
2023/01/02 07:22:11;;;;;;;;;;;4.20;99.90;;;;;;5094877;28;19909;-79
2023/01/02 07:24:37;;;;;;;;;;;4.20;99.90;;;;;;5076222;28;19931;-77
2023/01/02 07:27:03;;;;;;;;;;;4.20;99.90;;;;;;5094331;28;19904;-77
2023/01/02 07:29:28;;;;;;;;;;;4.30;99.90;;;;;;5094760;28;19908;-78
2023/01/02 07:31:54;;;;;;;;;;;4.20;99.90;;;;;;5094669;28;19963;-78
2023/01/02 07:34:19;;;;;;;;;;;4.20;99.90;;;;;;5094685;28;20014;-79
2023/01/02 07:36:45;;;;;;;;;;;4.20;99.90;;;;;;5094653;28;19980;-79
2023/01/02 07:39:11;;;;;;;;;;;4.20;99.90;;;;;;5095904;28;19908;-79
2023/01/02 07:41:36;;;;;;;;;;;4.20;99.90;;;;;;5094429;28;20373;-78
2023/01/02 07:44:02;;;;;;;;;;;4.20;99.90;;;;;;5094239;28;20012;-79
2023/01/02 07:46:27;;;;;;;;;;;4.10;99.90;;;;;;5094341;28;19908;-79
2023/01/02 07:48:53;;;;;;;;;;;4.10;99.90;;;;;;5106827;28;19908;-78
2023/01/02 07:51:18;;;;;;;;;;;4.10;99.90;;;;;;5115020;28;19959;-78
2023/01/02 07:53:44;;;;;;;;;;;4.10;99.90;;;;;;5096265;28;19930;-82
2023/01/02 07:56:10;;;;;;;;;;;4.10;99.90;;;;;;5114634;28;20003;-78
2023/01/02 07:58:35;;;;;;;;;;;4.00;99.90;;;;;;5115155;28;19919;-78
2023/01/02 08:01:05;;;;;;;;;;;4.00;99.90;;;;;;5096272;28;19908;-78
2023/01/02 08:03:30;;;;;;;;;;;4.00;99.90;;;;;;5109475;28;19924;-78
2023/01/02 08:06:06;;;;;;;;;;;4.00;99.90;;;;;;5094442;28;19908;-78
2023/01/02 08:08:33;;;;;;;;;;;3.90;99.90;;;;;;5094485;28;19908;-78
2023/01/02 08:11:02;;;;;;;;;;;3.90;99.90;;;;;;5094165;28;20381;-78
2023/01/02 08:13:27;;;;;;;;;;;3.80;99.90;;;;;;5093533;28;20365;-77
2023/01/02 08:15:53;;;;;;;;;;;3.80;99.90;;;;;;5093741;28;19965;-78
2023/01/02 08:18:18;;;;;;;;;;;3.70;99.90;;;;;;5094092;28;20351;-80
2023/01/02 08:20:44;;;;;;;;;;;3.70;99.90;;;;;;5093528;28;20277;-78
2023/01/02 08:23:10;;;;;;;;;;;3.70;99.90;;;;;;5093206;28;20313;-78
2023/01/02 08:25:35;;;;;;;;;;;3.50;99.90;;;;;;5092757;28;19974;-78
2023/01/02 08:28:01;;;;;;;;;;;3.50;99.90;;;;;;5074884;28;19919;-78
2023/01/02 08:30:26;;;;;;;;;;;3.40;99.90;;;;;;5093386;28;20335;-78
2023/01/02 08:32:52;;;;;;;;;;;3.40;99.90;;;;;;5074384;28;20273;-79
2023/01/02 08:35:17;;;;;;;;;;;3.40;99.90;;;;;;5093324;28;19916;-79
2023/01/02 08:37:43;;;;;;;;;;;3.40;99.90;;;;;;5093656;28;19946;-79
2023/01/02 08:40:09;;;;;;;;;;;3.30;99.90;;;;;;5106800;28;20010;-79
2023/01/02 08:42:34;;;;;;;;;;;3.20;99.90;;;;;;5096009;28;19912;-79
2023/01/02 08:45:00;;;;;;;;;;;3.20;99.90;;;;;;5110128;28;20276;-79
2023/01/02 08:47:25;;;;;;;;;;;3.10;99.90;;;;;;5113505;28;20007;-79
2023/01/02 08:49:51;;;;;;;;;;;3.10;99.90;;;;;;5112748;28;19914;-81
2023/01/02 08:52:16;;;;;;;;;;;3.10;99.90;;;;;;5094789;28;20309;-79
2023/01/02 08:54:42;;;;;;;;;;;3.10;99.90;;;;;;5112858;28;19911;-79
2023/01/02 08:57:07;;;;;;;;;;;3.00;99.90;;;;;;5113819;28;20471;-79
2023/01/02 08:59:33;;;;;;;;;;;3.00;99.90;;;;;;5111094;28;19916;-78
2023/01/02 09:01:58;;;;;;;;;;;2.90;99.90;;;;;;5105753;28;19908;-78
2023/01/02 09:04:24;;;;;;;;;;;3.00;99.90;;;;;;5117968;28;20233;-80
2023/01/02 09:06:50;;;;;;;;;;;3.00;99.90;;;;;;5111022;28;19916;-84
2023/01/02 09:09:16;;;;;;;;;;;3.00;99.90;;;;;;5098489;28;19916;-78
2023/01/02 09:11:49;;;;;;;;;;;3.00;99.90;;;;;;5100109;28;19911;-79
2023/01/02 09:14:15;;;;;;;;;;;3.00;99.90;;;;;;5105453;28;19911;-78
2023/01/02 09:16:41;;;;;;;;;;;3.00;99.90;;;;;;5098960;28;20350;-79
2023/01/02 09:19:06;;;;;;;;;;;3.00;99.90;;;;;;5081446;28;19919;-79
2023/01/02 09:21:32;;;;;;;;;;;3.00;99.90;;;;;;5095179;28;19908;-80
2023/01/02 09:23:58;;;;;;;;;;;3.00;99.90;;;;;;5097335;28;20323;-81
2023/01/02 09:26:24;;;;;;;;;;;3.10;99.90;;;;;;5084400;28;19923;-80
2023/01/02 09:28:50;;;;;;;;;;;3.10;99.90;;;;;;5107387;28;19912;-85
2023/01/02 09:31:16;;;;;;;;;;;3.10;99.90;;;;;;5111934;28;19908;-80
2023/01/02 09:33:42;;;;;;;;;;;3.20;99.90;;;;;;5112428;28;19919;-80
2023/01/02 09:36:09;;;;;;;;;;;3.20;99.90;;;;;;5104273;28;19947;-80
2023/01/02 09:38:35;;;;;;;;;;;3.20;99.90;;;;;;5100004;28;19965;-80
2023/01/02 09:41:09;;;;;;;;;;;3.20;99.90;;;;;;5100808;28;19908;-80
2023/01/02 09:43:37;;;;;;;;;;;3.20;99.90;;;;;;5100944;28;20365;-80
2023/01/02 09:46:04;;;;;;;;;;;3.20;99.90;;;;;;5105406;28;20345;-81
2023/01/02 09:48:32;;;;;;;;;;;3.10;99.90;;;;;;5112287;28;19915;-80
2023/01/02 09:50:58;;;;;;;;;;;3.10;99.90;;;;;;5111393;28;19965;-81
2023/01/02 09:53:24;;;;;;;;;;;3.10;99.90;;;;;;5105591;28;20343;-80
2023/01/02 09:56:01;;;;;;;;;;;3.10;99.90;;;;;;5100230;28;19922;-81
2023/01/02 09:58:38;;;;;;;;;;;3.10;99.90;;;;;;5088672;28;19908;-80
2023/01/02 10:01:08;;;;;;;;;;;3.10;99.90;;;;;;5102478;28;19911;-81
2023/01/02 10:03:42;;;;;;;;;;;3.10;99.90;;;;;;5100145;28;19924;-81
2023/01/02 10:06:08;;;;;;;;;;;3.20;99.90;;;;;;5104379;28;19943;-83
2023/01/02 10:08:37;;;;;;;;;;;3.20;99.90;;;;;;5102706;28;19908;-82
2023/01/02 10:11:21;;;;;;;;;;;3.20;99.90;;;;;;5101606;28;20030;-79
2023/01/02 10:13:50;;;;;;;;;;;3.20;99.90;;;;;;5095953;28;19961;-80
2023/01/02 10:16:18;;;;;;;;;;;3.20;99.90;;;;;;5102947;28;19920;-79
2023/01/02 10:18:46;;;;;;;;;;;3.20;99.90;;;;;;5111585;28;19943;-79
2023/01/02 10:21:14;;;;;;;;;;;3.30;99.90;;;;;;5111628;28;20004;-81
2023/01/02 10:23:41;;;;;;;;;;;3.30;99.90;;;;;;5111677;28;19914;-81
2023/01/02 10:26:22;;;;;;;;;;;3.30;99.90;;;;;;5085887;28;19923;-83
2023/01/02 10:28:47;;;;;;;;;;;3.30;99.90;;;;;;5096656;28;19918;-79
2023/01/02 10:31:32;;;;;;;;;;;3.30;99.90;;;;;;5098327;28;20263;-79
2023/01/02 10:34:03;;;;;;;;;;;3.40;99.90;;;;;;5101629;28;19927;-80
2023/01/02 10:36:33;;;;;;;;;;;3.40;99.90;;;;;;5105085;28;19912;-79
2023/01/02 10:39:01;;;;;;;;;;;3.50;99.90;;;;;;5110905;28;19935;-80
2023/01/02 10:41:27;;;;;;;;;;;3.50;99.90;;;;;;5111318;28;20253;-80
2023/01/02 10:43:54;;;;;;;;;;;3.50;99.90;;;;;;5099112;28;19957;-79
2023/01/02 10:46:20;;;;;;;;;;;3.50;99.90;;;;;;5100646;28;19984;-79
2023/01/02 10:48:46;;;;;;;;;;;3.50;99.90;;;;;;5104878;28;20313;-83
2023/01/02 10:51:13;;;;;;;;;;;3.60;99.90;;;;;;5102842;28;19947;-82
2023/01/02 10:53:38;;;;;;;;;;;3.60;99.90;;;;;;5095766;28;20432;-82
2023/01/02 10:56:17;;;;;;;;;;;3.70;99.90;;;;;;5094581;28;19958;-82
2023/01/02 10:58:44;;;;;;;;;;;3.60;99.90;;;;;;5095607;28;19934;-81
2023/01/02 11:01:17;;;;;;;;;;;3.70;99.90;;;;;;5078103;28;19991;-84
2023/01/02 11:03:58;;;;;;;;;;;3.70;99.90;;;;;;5095274;28;19962;-83
2023/01/02 11:06:25;;;;;;;;;;;3.70;99.90;;;;;;5094819;28;19999;-83
2023/01/02 11:08:55;;;;;;;;;;;3.70;99.90;;;;;;5095295;28;19982;-83
2023/01/02 11:11:22;;;;;;;;;;;3.70;99.90;;;;;;5098389;28;19980;-83
2023/01/02 11:13:50;;;;;;;;;;;3.80;99.90;;;;;;5098168;28;19916;-83
2023/01/02 11:16:17;;;;;;;;;;;3.80;99.90;;;;;;5094238;28;19912;-83
2023/01/02 11:18:48;;;;;;;;;;;3.80;99.90;;;;;;5098612;28;19908;-82
2023/01/02 11:21:22;;;;;;;;;;;3.90;99.90;;;;;;5097256;28;19916;-82
2023/01/02 11:23:48;;;;;;;;;;;3.90;99.90;;;;;;5077108;28;19995;-83
2023/01/02 11:26:21;;;;;;;;;;;3.90;99.90;;;;;;5076404;28;20458;-83
2023/01/02 11:28:48;;;;;;;;;;;3.90;99.90;;;;;;5095079;28;19919;-82
2023/01/02 11:31:15;;;;;;;;;;;4.00;99.90;;;;;;5094410;28;19909;-81
2023/01/02 11:33:41;;;;;;;;;;;4.00;99.90;;;;;;5077388;28;20353;-84
2023/01/02 11:36:10;;;;;;;;;;;4.00;99.90;;;;;;5094799;28;19912;-83
2023/01/02 11:38:41;;;;;;;;;;;4.00;99.90;;;;;;5094945;28;19911;-83
2023/01/02 11:41:20;;;;;;;;;;;4.10;99.90;;;;;;5076382;28;19908;-83
2023/01/02 11:43:47;;;;;;;;;;;4.10;99.90;;;;;;5094722;28;19908;-83
2023/01/02 11:46:39;;;;;;;;;;;4.10;99.90;;;;;;5093674;28;20323;-83
2023/01/02 11:49:14;;;;;;;;;;;4.10;99.90;;;;;;5090550;28;19912;-83
2023/01/02 11:51:40;;;;;;;;;;;4.10;99.90;;;;;;5095187;28;20020;-83
2023/01/02 11:54:11;;;;;;;;;;;4.20;99.90;;;;;;5094463;28;19959;-81
2023/01/02 11:56:38;;;;;;;;;;;4.20;99.90;;;;;;5095916;28;19912;-82
2023/01/02 11:59:10;;;;;;;;;;;4.20;99.90;;;;;;5093458;28;20391;-82
2023/01/02 12:01:48;;;;;;;;;;;4.20;99.90;;;;;;5094472;28;19969;-82
2023/01/02 12:04:14;;;;;;;;;;;4.20;99.90;;;;;;5093740;28;19908;-82
2023/01/02 12:06:55;;;;;;;;;;;4.20;99.90;;;;;;5094070;28;19969;-82
2023/01/02 12:09:23;;;;;;;;;;;4.20;99.90;;;;;;5093077;28;20468;-82
2023/01/02 12:11:52;;;;;;;;;;;4.30;99.90;;;;;;5093577;28;19973;-81
2023/01/02 12:14:23;;;;;;;;;;;4.30;99.90;;;;;;5092630;28;19968;-82
2023/01/02 12:16:48;;;;;;;;;;;4.30;99.90;;;;;;5093164;28;19912;-82
2023/01/02 12:19:14;;;;;;;;;;;4.30;99.90;;;;;;5092892;28;19961;-82
2023/01/02 12:21:45;;;;;;;;;;;4.30;99.90;;;;;;5101495;28;19923;-82
2023/01/02 12:24:23;;;;;;;;;;;4.40;99.90;;;;;;5105847;28;20367;-82
2023/01/02 12:26:56;;;;;;;;;;;4.40;99.90;;;;;;5094665;28;19943;-82
2023/01/02 12:29:25;;;;;;;;;;;4.40;99.90;;;;;;5093591;28;19949;-82
2023/01/02 12:32:00;;;;;;;;;;;4.40;99.90;;;;;;5092238;28;19908;-82
2023/01/02 12:34:38;;;;;;;;;;;4.40;99.90;;;;;;5092458;28;19912;-82
2023/01/02 12:37:12;;;;;;;;;;;4.40;99.90;;;;;;5091963;28;20367;-84
2023/01/02 12:39:40;;;;;;;;;;;4.50;99.90;;;;;;5092666;28;19939;-82
2023/01/02 12:42:11;;;;;;;;;;;4.50;99.90;;;;;;5092753;28;20322;-83
2023/01/02 12:44:51;;;;;;;;;;;4.50;99.90;;;;;;5092898;28;19908;-82
2023/01/02 12:47:16;;;;;;;;;;;4.60;99.90;;;;;;5092295;28;19910;-82
2023/01/02 12:49:45;;;;;;;;;;;4.60;99.90;;;;;;5093128;28;19998;-82
2023/01/02 12:52:13;;;;;;;;;;;4.60;99.90;;;;;;5092452;28;19912;-82
2023/01/02 12:54:59;;;;;;;;;;;4.60;99.90;;;;;;5093984;28;20420;-81
2023/01/02 12:57:25;;;;;;;;;;;4.70;99.90;;;;;;5092122;28;19923;-82
2023/01/02 12:59:50;;;;;;;;;;;4.70;99.90;;;;;;5092325;28;19912;-82
2023/01/02 13:02:34;;;;;;;;;;;4.80;99.90;;;;;;5091737;28;20391;-83
2023/01/02 13:05:03;;;;;;;;;;;4.80;99.90;;;;;;5092358;28;20014;-83
2023/01/02 13:07:36;;;;;;;;;;;4.90;99.90;;;;;;5092689;28;19999;-83
2023/01/02 13:10:03;;;;;;;;;;;4.90;99.90;;;;;;5092605;28;19931;-83
2023/01/02 13:12:30;;;;;;;;;;;5.00;99.90;;;;;;5100895;28;19912;-83
2023/01/02 13:14:59;;;;;;;;;;;5.00;99.90;;;;;;5112007;28;20560;-83
2023/01/02 13:17:25;;;;;;;;;;;5.10;99.90;;;;;;5113016;28;19961;-82
2023/01/02 13:19:54;;;;;;;;;;;5.10;99.90;;;;;;5112871;28;19907;-83
2023/01/02 13:22:28;;;;;;;;;;;5.10;99.90;;;;;;5112637;28;19912;-83
2023/01/02 13:24:54;;;;;;;;;;;5.20;99.90;;;;;;5113369;28;20001;-83
2023/01/02 13:27:20;;;;;;;;;;;5.20;99.90;;;;;;5093746;28;19993;-83
2023/01/02 13:29:45;;;;;;;;;;;5.20;99.90;;;;;;5106592;28;19954;-83
2023/01/02 13:32:12;;;;;;;;;;;5.20;99.90;;;;;;5103711;28;19908;-83
2023/01/02 13:34:45;;;;;;;;;;;5.20;99.90;;;;;;5102474;28;19922;-82
2023/01/02 13:37:16;;;;;;;;;;;5.30;99.90;;;;;;5102612;28;19923;-83
2023/01/02 13:39:42;;;;;;;;;;;5.30;99.90;;;;;;5103864;28;20261;-84
2023/01/02 13:44:55;;;;;;;;;;;5.40;99.90;;;;;;5092381;28;20284;-81
2023/01/02 13:47:23;;;;;;;;;;;5.40;99.90;;;;;;5073272;28;19961;-81
2023/01/02 13:49:50;;;;;;;;;;;5.40;99.90;;;;;;5091931;28;19912;-82
2023/01/02 13:52:18;;;;;;;;;;;5.40;99.90;;;;;;5073670;28;20231;-82
2023/01/02 13:55:03;;;;;;;;;;;5.50;99.90;;;;;;5092026;28;19924;-81
2023/01/02 13:57:30;;;;;;;;;;;5.50;99.90;;;;;;5100025;28;19992;-81
2023/01/02 14:00:01;;;;;;;;;;;5.50;99.90;;;;;;5102168;28;19922;-82
2023/01/02 14:02:27;;;;;;;;;;;5.50;99.90;;;;;;5092626;28;20273;-80
2023/01/02 14:04:52;;;;;;;;;;;5.40;99.90;;;;;;5092256;28;20014;-82
2023/01/02 14:07:24;;;;;;;;;;;5.40;99.90;;;;;;5091550;28;20258;-81
2023/01/02 14:10:11;;;;;;;;;;;5.40;99.90;;;;;;5091963;28;20016;-82
2023/01/02 14:12:42;;;;;;;;;;;5.30;99.90;;;;;;5072872;28;20070;-82
2023/01/02 14:15:14;;;;;;;;;;;5.30;99.90;;;;;;5090688;28;20006;-82
2023/01/02 14:17:43;;;;;;;;;;;5.30;99.90;;;;;;5099699;28;20001;-81
2023/01/02 14:20:17;;;;;;;;;;;5.30;99.90;;;;;;5101570;28;19916;-82
2023/01/02 14:22:45;;;;;;;;;;;5.30;99.90;;;;;;5099186;28;19995;-82
2023/01/02 14:25:11;;;;;;;;;;;5.40;99.90;;;;;;5090841;28;19915;-81
2023/01/02 14:27:37;;;;;;;;;;;5.40;99.90;;;;;;5091590;28;19912;-81
2023/01/02 14:30:05;;;;;;;;;;;5.40;99.90;;;;;;5090955;28;19919;-82
2023/01/02 14:32:33;;;;;;;;;;;5.40;99.90;;;;;;5096302;28;19912;-81
2023/01/02 14:35:03;;;;;;;;;;;5.40;99.90;;;;;;5103762;28;19991;-81
2023/01/02 14:37:48;;;;;;;;;;;5.40;99.90;;;;;;5080383;28;20011;-81
2023/01/02 14:40:13;;;;;;;;;;;5.30;99.90;;;;;;5086879;28;20329;-80
2023/01/02 14:45:27;;;;;;;;;;;5.30;99.90;;;;;;5107166;28;20025;-79